Birchwood, Tennessee
Current Conditions -  °F | °C
As of 9:15 AM on Monday 24 Nov 2014 (Local Time) from KRZR Reporting Station
Overcast Overcast  
Wind Chill: 63°   Ceiling: 2100
Heat Index: 63°   Visibility: 10mi
Dew Point: 55°   Wind: 10mph
Humidity: 77%   Direction: 190°S
Pressure: 29.72"   Gusts: NA
Location:  35.36°N, 84.99°W
Report Text: KRZR 241415Z AUTO 19009KT 10SM BKN021 OVC029 17/13 A2972 RMK
Loading
Personal Weather Stations






























Interactive Weather Map New forecast layout! Learn more

10-Day Weather Forecast

Advertisements
Track Severe Weather on mobile